createdAt,value
2023-06-19T00:00:31.383Z,100997.81
2023-06-19T00:02:58.251Z,101013.84
2023-06-19T00:05:26.128Z,101019.22
2023-06-19T00:07:52.928Z,100972.38
2023-06-19T00:10:19.538Z,101014.22
2023-06-19T00:15:12.694Z,101002.19
2023-06-19T00:17:39.694Z,101002.00
2023-06-19T00:20:06.863Z,100989.56
2023-06-19T00:22:33.453Z,100975.38
2023-06-19T00:25:00.386Z,100978.34
2023-06-19T00:27:27.516Z,100967.72
2023-06-19T00:29:54.252Z,100965.16
2023-06-19T00:32:21.351Z,100937.13
2023-06-19T00:34:48.012Z,100963.44
2023-06-19T00:37:14.678Z,100980.66
2023-06-19T00:39:43.748Z,100982.00
2023-06-19T00:42:11.258Z,100957.53
2023-06-19T00:44:37.786Z,100977.34
2023-06-19T00:47:05.478Z,100979.13
2023-06-19T00:49:32.576Z,100949.34
2023-06-19T00:51:59.225Z,100893.28
2023-06-19T00:54:26.302Z,100941.00
2023-06-19T00:56:53.508Z,100910.66
2023-06-19T00:59:20.851Z,100933.19
2023-06-19T01:01:48.162Z,100915.38
2023-06-19T01:04:15.330Z,100929.38
2023-06-19T01:06:54.025Z,100933.44
2023-06-19T01:09:21.489Z,100941.34
2023-06-19T01:11:53.373Z,100935.03
2023-06-19T01:14:27.173Z,100931.56
2023-06-19T01:16:53.693Z,100934.19
2023-06-19T01:19:21.874Z,100936.16
2023-06-19T01:21:51.310Z,100935.34
2023-06-19T01:24:17.908Z,100913.47
2023-06-19T01:26:46.968Z,100925.31
2023-06-19T01:29:16.749Z,100941.25
2023-06-19T01:32:08.070Z,100938.00
2023-06-19T01:34:35.350Z,100938.50
2023-06-19T01:37:03.326Z,100941.25
2023-06-19T01:39:29.988Z,100924.91
2023-06-19T01:41:57.107Z,100923.91
2023-06-19T01:44:23.719Z,100897.22
2023-06-19T01:46:51.870Z,100897.59
2023-06-19T01:49:19.330Z,100931.47
2023-06-19T01:51:45.838Z,100918.19
2023-06-19T01:54:12.295Z,100917.59
2023-06-19T01:56:38.825Z,100898.50
2023-06-19T01:59:05.372Z,100904.47
2023-06-19T02:01:31.825Z,100903.47
2023-06-19T02:03:58.338Z,100900.78
2023-06-19T02:06:24.864Z,100894.28
2023-06-19T02:08:51.373Z,100912.09
2023-06-19T02:11:17.865Z,100903.09
2023-06-19T02:13:44.409Z,100910.38
2023-06-19T02:16:10.999Z,100901.25
2023-06-19T02:18:37.503Z,100903.59
2023-06-19T02:21:04.254Z,100903.22
2023-06-19T02:23:30.790Z,100879.81
2023-06-19T02:25:57.248Z,100901.63
2023-06-19T02:28:23.720Z,100889.38
2023-06-19T02:30:50.163Z,100901.09
2023-06-19T02:33:16.651Z,100891.13
2023-06-19T02:35:43.087Z,100892.19
2023-06-19T02:38:09.583Z,100896.94
2023-06-19T02:40:36.056Z,100899.84
2023-06-19T02:43:02.569Z,100900.34
2023-06-19T02:45:29.076Z,100897.59
2023-06-19T02:47:55.748Z,100890.56
2023-06-19T02:50:22.638Z,100894.47
2023-06-19T02:52:49.412Z,100905.50
2023-06-19T02:55:15.974Z,100911.63
2023-06-19T02:57:42.459Z,100904.00
2023-06-19T03:00:11.276Z,100917.31
2023-06-19T03:02:37.973Z,100912.41
2023-06-19T03:05:04.713Z,100917.66
2023-06-19T03:07:31.209Z,100910.69
2023-06-19T03:09:57.686Z,100903.47
2023-06-19T03:12:24.152Z,100911.06
2023-06-19T03:14:50.669Z,100924.38
2023-06-19T03:17:17.163Z,100922.78
2023-06-19T03:19:43.637Z,100920.63
2023-06-19T03:22:10.137Z,100927.09
2023-06-19T03:24:36.677Z,100926.34
2023-06-19T03:27:03.420Z,100931.59
2023-06-19T03:29:29.864Z,100942.59
2023-06-19T03:31:56.363Z,100929.66
2023-06-19T03:34:22.906Z,100936.03
2023-06-19T03:36:49.344Z,100938.53
2023-06-19T03:39:15.904Z,100932.72
2023-06-19T03:41:42.356Z,100947.34
2023-06-19T03:44:08.790Z,100947.25
2023-06-19T03:46:35.400Z,100941.19
2023-06-19T03:49:01.972Z,100949.25
2023-06-19T03:51:30.196Z,100961.59
2023-06-19T03:53:56.758Z,100953.16
2023-06-19T03:56:23.261Z,100952.66
2023-06-19T03:58:49.760Z,100947.84
2023-06-19T04:01:16.275Z,100954.88
2023-06-19T04:03:42.812Z,100954.13
2023-06-19T04:06:09.357Z,100958.13
2023-06-19T04:08:35.918Z,100966.06
2023-06-19T04:11:02.402Z,100958.13
2023-06-19T04:13:28.884Z,100959.94
2023-06-19T04:15:55.432Z,100954.44
2023-06-19T04:18:21.938Z,100963.44
2023-06-19T04:20:48.470Z,100953.16
2023-06-19T04:23:14.992Z,100924.25
2023-06-19T04:25:41.570Z,100957.09
2023-06-19T04:28:08.060Z,100956.78
2023-06-19T04:30:34.589Z,100959.28
2023-06-19T04:33:01.347Z,100939.03
2023-06-19T04:35:27.913Z,100959.44
2023-06-19T04:37:54.819Z,100954.03
2023-06-19T04:40:21.718Z,100960.59
2023-06-19T04:42:48.461Z,100973.06
2023-06-19T04:45:14.984Z,100968.75
2023-06-19T04:47:52.460Z,100977.03
2023-06-19T04:50:20.685Z,100969.06
2023-06-19T04:52:48.410Z,100975.22
2023-06-19T04:55:14.890Z,100951.50
2023-06-19T04:57:41.368Z,100970.41
2023-06-19T05:00:11.105Z,100968.75
2023-06-19T05:02:38.168Z,100980.84
2023-06-19T05:05:05.055Z,100982.34
2023-06-19T05:07:34.402Z,100969.41
2023-06-19T05:10:00.916Z,100975.72
2023-06-19T05:12:27.558Z,100978.44
2023-06-19T05:14:54.083Z,100977.38
2023-06-19T05:17:20.928Z,100988.66
2023-06-19T05:19:47.625Z,100989.56
2023-06-19T05:22:14.567Z,100990.66
2023-06-19T05:24:41.142Z,100985.69
2023-06-19T05:27:07.778Z,100995.66
2023-06-19T05:29:34.291Z,101001.44
2023-06-19T05:32:00.784Z,101003.91
2023-06-19T05:34:27.258Z,101005.44
2023-06-19T05:36:53.819Z,101003.56
2023-06-19T05:39:20.376Z,100999.56
2023-06-19T05:41:47.003Z,101004.25
2023-06-19T05:44:17.856Z,101002.16
2023-06-19T05:46:44.632Z,101007.09
2023-06-19T05:49:11.591Z,101009.28
2023-06-19T05:51:38.222Z,101015.94
2023-06-19T05:54:05.279Z,101024.44
2023-06-19T05:56:34.286Z,101026.78
2023-06-19T05:59:02.586Z,101033.53
2023-06-19T06:01:30.017Z,101034.31
2023-06-19T06:03:57.688Z,101034.44
2023-06-19T06:06:25.111Z,101039.56
2023-06-19T06:08:52.532Z,101050.00
2023-06-19T06:11:19.706Z,101053.22
2023-06-19T06:13:46.184Z,101062.25
2023-06-19T06:16:12.766Z,101065.88
2023-06-19T06:18:39.265Z,101061.06
2023-06-19T06:21:05.829Z,101058.59
2023-06-19T06:23:32.797Z,101060.13
2023-06-19T06:26:03.513Z,101067.53
2023-06-19T06:28:30.476Z,101074.69
2023-06-19T06:30:56.993Z,101054.56
2023-06-19T06:33:24.395Z,101072.66
2023-06-19T06:35:52.582Z,101058.22
2023-06-19T06:38:19.186Z,101079.41
2023-06-19T06:40:45.734Z,101074.69
2023-06-19T06:43:12.263Z,101074.50
2023-06-19T06:45:39.354Z,101085.63
2023-06-19T06:48:08.057Z,101071.81
2023-06-19T06:50:35.029Z,101076.81
2023-06-19T06:53:01.648Z,101074.63
2023-06-19T06:55:28.158Z,101073.81
2023-06-19T06:57:54.617Z,101071.69
2023-06-19T07:00:21.551Z,101071.50
2023-06-19T07:02:49.446Z,101092.00
2023-06-19T07:05:16.019Z,101079.53
2023-06-19T07:07:42.521Z,101079.72
2023-06-19T07:10:10.566Z,101084.50
2023-06-19T07:12:45.508Z,101056.94
2023-06-19T07:15:13.025Z,101092.88
2023-06-19T07:17:39.664Z,101100.63
2023-06-19T07:20:07.475Z,101077.06
2023-06-19T07:22:34.189Z,101100.31
2023-06-19T07:25:00.756Z,101111.94
2023-06-19T07:27:28.700Z,101114.63
2023-06-19T07:29:55.377Z,101112.00
2023-06-19T07:32:21.906Z,101090.69
2023-06-19T07:34:48.435Z,101104.00
2023-06-19T07:37:18.714Z,101130.19
2023-06-19T07:39:46.463Z,101131.13
2023-06-19T07:42:14.903Z,101134.22
2023-06-19T07:44:41.921Z,101133.69
2023-06-19T07:47:09.400Z,101139.72
2023-06-19T07:49:36.978Z,101141.53
2023-06-19T07:52:07.302Z,101159.00
2023-06-19T07:54:35.629Z,101139.63
2023-06-19T07:57:02.590Z,101144.91
2023-06-19T07:59:29.084Z,101144.66
2023-06-19T08:01:55.762Z,101141.47
2023-06-19T08:04:22.286Z,101145.84
2023-06-19T08:06:48.761Z,101144.75
2023-06-19T08:09:15.253Z,101145.34
2023-06-19T08:11:41.688Z,101155.44
2023-06-19T08:14:08.154Z,101159.38
2023-06-19T08:16:34.876Z,101155.00
2023-06-19T08:19:01.362Z,101158.88
2023-06-19T08:21:27.864Z,101162.13
2023-06-19T08:23:54.361Z,101167.53
2023-06-19T08:26:21.375Z,101176.22
2023-06-19T08:28:48.884Z,101188.09
2023-06-19T08:31:15.442Z,101189.63
2023-06-19T08:33:41.978Z,101201.94
2023-06-19T08:36:08.534Z,101200.53
2023-06-19T08:38:35.085Z,101204.13
2023-06-19T08:41:01.705Z,101204.44
2023-06-19T08:43:28.544Z,101216.44
2023-06-19T08:46:27.434Z,101219.19
2023-06-19T08:48:56.918Z,101224.38
2023-06-19T08:51:23.632Z,101221.41
2023-06-19T08:53:56.665Z,101226.59
2023-06-19T08:56:23.396Z,101223.41
2023-06-19T08:58:50.048Z,101215.38
2023-06-19T09:01:20.694Z,101230.53
2023-06-19T09:03:47.963Z,101228.38
2023-06-19T09:06:17.630Z,101235.56
2023-06-19T09:08:44.300Z,101231.16
2023-06-19T09:11:12.528Z,101223.50
2023-06-19T09:13:39.151Z,101234.72
2023-06-19T09:16:09.549Z,101241.22
2023-06-19T09:18:49.238Z,101244.50
2023-06-19T09:21:20.300Z,101244.69
2023-06-19T09:23:47.691Z,101244.59
2023-06-19T09:26:18.845Z,101245.63
2023-06-19T09:28:45.807Z,101261.97
2023-06-19T09:31:13.565Z,101247.22
2023-06-19T09:33:40.986Z,101245.63
2023-06-19T09:36:07.952Z,101260.03
2023-06-19T09:38:39.993Z,101246.34
2023-06-19T09:41:07.272Z,101265.66
2023-06-19T09:43:40.817Z,101261.47
2023-06-19T09:46:08.403Z,101272.41
2023-06-19T09:48:36.184Z,101279.38
2023-06-19T09:51:05.684Z,101280.72
2023-06-19T09:53:33.293Z,101288.00
2023-06-19T09:55:59.745Z,101288.19
2023-06-19T09:58:27.337Z,101290.09
2023-06-19T10:00:56.193Z,101285.56
2023-06-19T10:03:32.005Z,101291.16
2023-06-19T10:06:00.984Z,101300.00
2023-06-19T10:08:32.426Z,101293.16
2023-06-19T10:10:59.269Z,101289.53
2023-06-19T10:13:34.397Z,101284.44
2023-06-19T10:16:02.038Z,101282.22
2023-06-19T10:18:28.963Z,101293.44
2023-06-19T10:20:56.498Z,101290.94
2023-06-19T10:23:25.877Z,101294.53
2023-06-19T10:25:55.514Z,101288.03
2023-06-19T10:28:23.526Z,101293.25
2023-06-19T10:31:19.543Z,101291.03
2023-06-19T10:33:46.028Z,101311.72
2023-06-19T10:36:15.502Z,101298.75
2023-06-19T10:38:42.157Z,101296.56
2023-06-19T10:41:18.900Z,101287.31
2023-06-19T10:43:57.038Z,101254.63
2023-06-19T10:46:24.639Z,101288.00
2023-06-19T10:48:51.934Z,101298.47
2023-06-19T10:51:21.342Z,101299.56
2023-06-19T10:53:47.852Z,101287.81
2023-06-19T10:56:14.478Z,101303.81
2023-06-19T10:58:40.916Z,101298.94
2023-06-19T11:01:07.435Z,101298.38
2023-06-19T11:03:35.885Z,101297.53
2023-06-19T11:06:02.493Z,101307.66
2023-06-19T11:08:29.375Z,101299.97
2023-06-19T11:10:56.371Z,101303.56
2023-06-19T11:13:22.884Z,101293.63
2023-06-19T11:15:52.829Z,101309.59
2023-06-19T11:18:19.994Z,101306.00
2023-06-19T11:20:49.374Z,101316.28
2023-06-19T11:23:15.892Z,101327.31
2023-06-19T11:25:43.442Z,101309.91
2023-06-19T11:28:14.821Z,101318.94
2023-06-19T11:30:44.365Z,101314.78
2023-06-19T11:33:23.854Z,101314.59
2023-06-19T11:35:54.747Z,101307.13
2023-06-19T11:38:23.021Z,101303.53
2023-06-19T11:40:50.149Z,101305.50
2023-06-19T11:43:30.835Z,101331.19
2023-06-19T11:46:05.171Z,101322.63
2023-06-19T11:48:32.015Z,101329.78
2023-06-19T11:50:58.565Z,101328.41
2023-06-19T11:53:25.798Z,101322.31
2023-06-19T11:55:52.789Z,101328.97
2023-06-19T11:58:21.809Z,101335.06
2023-06-19T12:00:49.200Z,101303.56
2023-06-19T12:03:16.451Z,101314.50
2023-06-19T12:05:43.025Z,101320.03
2023-06-19T12:08:09.545Z,101325.56
2023-06-19T12:10:36.217Z,101323.63
2023-06-19T12:13:02.712Z,101324.69
2023-06-19T12:15:29.172Z,101328.34
2023-06-19T12:17:58.964Z,101323.84
2023-06-19T12:20:26.594Z,101334.16
2023-06-19T12:22:53.500Z,101329.47
2023-06-19T12:25:20.220Z,101326.19
2023-06-19T12:27:46.828Z,101339.72
2023-06-19T12:30:13.612Z,101328.69
2023-06-19T12:32:40.189Z,101338.75
2023-06-19T12:35:07.993Z,101340.50
2023-06-19T12:37:34.617Z,101343.00
2023-06-19T12:40:01.157Z,101341.81
2023-06-19T12:42:27.984Z,101347.31
2023-06-19T12:44:54.452Z,101343.69
2023-06-19T12:47:21.901Z,101338.66
2023-06-19T12:49:48.644Z,101348.53
2023-06-19T12:52:15.206Z,101350.84
2023-06-19T12:54:43.403Z,101355.66
2023-06-19T12:57:10.278Z,101327.19
2023-06-19T12:59:36.803Z,101331.97
2023-06-19T13:02:03.641Z,101350.38
2023-06-19T13:04:30.172Z,101360.44
2023-06-19T13:06:56.829Z,101363.25
2023-06-19T13:09:23.404Z,101357.06
2023-06-19T13:11:50.737Z,101359.53
2023-06-19T13:14:17.207Z,101356.09
2023-06-19T13:16:46.226Z,101355.34
2023-06-19T13:19:14.957Z,101352.66
2023-06-19T13:21:42.287Z,101365.34
2023-06-19T13:24:09.122Z,101380.88
2023-06-19T13:26:36.068Z,101371.94
2023-06-19T13:29:02.710Z,101376.09
2023-06-19T13:31:29.547Z,101370.34
2023-06-19T13:33:56.364Z,101368.38
2023-06-19T13:36:24.879Z,101379.19
2023-06-19T13:38:52.897Z,101379.50
2023-06-19T13:41:19.740Z,101375.06
2023-06-19T13:43:48.917Z,101363.06
2023-06-19T13:46:15.415Z,101381.16
2023-06-19T13:48:41.880Z,101369.28
2023-06-19T13:51:08.866Z,101372.88
2023-06-19T13:53:35.373Z,101354.91
2023-06-19T13:56:01.876Z,101374.63
2023-06-19T13:58:28.374Z,101363.91
2023-06-19T14:00:54.959Z,101345.91
2023-06-19T14:03:21.590Z,101361.44
2023-06-19T14:05:48.336Z,101365.91
2023-06-19T14:08:14.971Z,101365.91
2023-06-19T14:10:41.458Z,101352.75
2023-06-19T14:13:13.022Z,101357.00
2023-06-19T14:15:41.083Z,101355.56
2023-06-19T14:18:07.688Z,101357.13
2023-06-19T14:20:34.216Z,101350.75
2023-06-19T14:23:01.780Z,101359.31
2023-06-19T14:25:28.326Z,101341.94
2023-06-19T14:27:54.786Z,101342.34
2023-06-19T14:30:21.300Z,101353.59
2023-06-19T14:32:49.219Z,101363.41
2023-06-19T14:35:16.479Z,101361.63
2023-06-19T14:37:42.993Z,101366.44
2023-06-19T14:40:09.941Z,101357.13
2023-06-19T14:42:36.398Z,101360.66
2023-06-19T14:45:02.965Z,101354.75
2023-06-19T14:47:29.725Z,101332.47
2023-06-19T14:49:56.356Z,101347.31
2023-06-19T14:52:22.916Z,101359.94
2023-06-19T14:54:49.400Z,101327.13
2023-06-19T14:57:15.912Z,101338.81
2023-06-19T14:59:42.394Z,101341.50
2023-06-19T15:02:08.964Z,101343.19
2023-06-19T15:04:35.541Z,101338.53
2023-06-19T15:07:02.845Z,101346.59
2023-06-19T15:09:29.315Z,101344.09
2023-06-19T15:11:55.801Z,101351.25
2023-06-19T15:14:22.549Z,101360.19
2023-06-19T15:16:49.068Z,101353.31
2023-06-19T15:19:15.803Z,101347.50
2023-06-19T15:21:42.619Z,101351.25
2023-06-19T15:24:09.408Z,101359.34
2023-06-19T15:26:38.379Z,101342.75
2023-06-19T15:29:06.567Z,101343.47
2023-06-19T15:31:33.019Z,101354.81
2023-06-19T15:33:59.485Z,101360.50
2023-06-19T15:36:26.070Z,101361.34
2023-06-19T15:38:52.575Z,101355.41
2023-06-19T15:41:19.145Z,101344.31
2023-06-19T15:43:45.712Z,101344.69
2023-06-19T15:46:15.412Z,101355.84
2023-06-19T15:48:43.097Z,101355.38
2023-06-19T15:51:09.646Z,101340.06
2023-06-19T15:53:37.980Z,101347.31
2023-06-19T15:56:04.780Z,101352.47
2023-06-19T15:58:31.517Z,101350.34
2023-06-19T16:00:58.055Z,101351.81
2023-06-19T16:03:25.683Z,101330.63
2023-06-19T16:08:25.293Z,101343.38
2023-06-19T16:10:52.051Z,101318.75
2023-06-19T16:13:18.523Z,101331.16
2023-06-19T16:15:44.974Z,101341.75
2023-06-19T16:18:11.454Z,101337.56
2023-06-19T16:20:37.997Z,101329.81
2023-06-19T16:23:04.467Z,101343.16
2023-06-19T16:25:30.940Z,101331.00
2023-06-19T16:27:59.242Z,101338.19
2023-06-19T16:30:27.379Z,101337.22
2023-06-19T16:32:53.989Z,101337.47
2023-06-19T16:35:23.318Z,101332.91
2023-06-19T16:37:54.496Z,101339.47
2023-06-19T16:40:22.578Z,101339.97
2023-06-19T16:42:49.807Z,101337.94
2023-06-19T16:45:16.331Z,101343.16
2023-06-19T16:47:42.863Z,101335.63
2023-06-19T16:50:09.771Z,101341.84
2023-06-19T16:52:36.387Z,101330.03
2023-06-19T16:55:03.091Z,101343.56
2023-06-19T16:57:30.941Z,101355.81
2023-06-19T16:59:57.942Z,101350.38
2023-06-19T17:02:24.618Z,101360.13
2023-06-19T17:04:51.552Z,101357.59
2023-06-19T17:07:18.318Z,101365.41
2023-06-19T17:09:47.070Z,101350.97
2023-06-19T17:12:14.818Z,101360.38
2023-06-19T17:14:42.644Z,101351.63
2023-06-19T17:17:09.399Z,101363.44
2023-06-19T17:19:36.251Z,101367.59
2023-06-19T17:22:02.724Z,101372.91
2023-06-19T17:24:29.273Z,101362.94
2023-06-19T17:26:58.419Z,101371.50
2023-06-19T17:29:27.388Z,101381.94
2023-06-19T17:31:57.930Z,101386.97
2023-06-19T17:34:24.689Z,101385.59
2023-06-19T17:36:51.434Z,101379.78
2023-06-19T17:39:17.942Z,101382.53
2023-06-19T17:41:44.456Z,101391.38
2023-06-19T17:44:11.020Z,101389.66
2023-06-19T17:46:39.590Z,101390.75
2023-06-19T17:49:07.483Z,101390.13
2023-06-19T17:51:34.504Z,101402.84
2023-06-19T17:54:05.415Z,101408.94
2023-06-19T17:56:32.651Z,101405.63
2023-06-19T17:58:59.226Z,101406.63
2023-06-19T18:01:25.911Z,101407.38
2023-06-19T18:03:53.330Z,101392.72
2023-06-19T18:06:20.485Z,101390.59
2023-06-19T18:08:47.109Z,101393.19
2023-06-19T18:11:13.819Z,101403.16
2023-06-19T18:13:40.474Z,101413.59
2023-06-19T18:16:12.551Z,101411.53
2023-06-19T18:18:40.452Z,101398.94
2023-06-19T18:21:07.193Z,101413.59
2023-06-19T18:23:33.801Z,101416.09
2023-06-19T18:26:00.308Z,101413.47
2023-06-19T18:28:26.756Z,101421.63
2023-06-19T18:30:53.223Z,101415.47
2023-06-19T18:33:19.727Z,101417.78
2023-06-19T18:35:46.249Z,101422.13
2023-06-19T18:38:14.071Z,101423.41
2023-06-19T18:40:42.376Z,101425.03
2023-06-19T18:43:09.003Z,101423.91
2023-06-19T18:45:35.605Z,101416.16
2023-06-19T18:48:02.308Z,101409.56
2023-06-19T18:50:28.798Z,101411.69
2023-06-19T18:52:57.924Z,101420.31
2023-06-19T18:55:24.397Z,101430.66
2023-06-19T18:57:51.939Z,101429.19
2023-06-19T19:00:19.277Z,101431.50
2023-06-19T19:02:46.312Z,101434.44
2023-06-19T19:05:13.122Z,101406.38
2023-06-19T19:07:39.555Z,101428.72
2023-06-19T19:10:07.145Z,101415.16
2023-06-19T19:12:33.665Z,101428.41
2023-06-19T19:15:00.179Z,101430.47
2023-06-19T19:17:26.682Z,101426.97
2023-06-19T19:19:53.193Z,101434.22
2023-06-19T19:22:19.693Z,101420.56
2023-06-19T19:24:46.234Z,101436.56
2023-06-19T19:27:12.793Z,101438.03
2023-06-19T19:29:39.284Z,101445.78
2023-06-19T19:32:06.395Z,101451.06
2023-06-19T19:34:32.890Z,101439.97
2023-06-19T19:36:59.353Z,101447.84
2023-06-19T19:39:26.038Z,101444.59
2023-06-19T19:41:52.553Z,101450.25
2023-06-19T19:44:19.024Z,101451.78
2023-06-19T19:46:45.772Z,101452.84
2023-06-19T19:49:12.345Z,101457.09
2023-06-19T19:51:38.805Z,101449.63
2023-06-19T19:54:05.403Z,101456.38
2023-06-19T19:56:31.929Z,101462.91
2023-06-19T19:58:58.391Z,101470.72
2023-06-19T20:01:24.936Z,101464.66
2023-06-19T20:03:51.699Z,101474.53
2023-06-19T20:06:18.992Z,101468.72
2023-06-19T20:08:45.579Z,101474.06
2023-06-19T20:11:13.402Z,101442.25
2023-06-19T20:13:40.369Z,101485.50
2023-06-19T20:16:10.314Z,101490.97
2023-06-19T20:18:37.412Z,101486.03
2023-06-19T20:21:03.947Z,101489.72
2023-06-19T20:23:30.476Z,101479.03
2023-06-19T20:25:56.946Z,101495.00
2023-06-19T20:28:23.382Z,101497.88
2023-06-19T20:30:49.988Z,101498.28
2023-06-19T20:33:16.461Z,101501.34
2023-06-19T20:35:42.912Z,101502.19
2023-06-19T20:38:09.433Z,101507.47
2023-06-19T20:40:35.922Z,101510.84
2023-06-19T20:43:02.403Z,101510.66
2023-06-19T20:45:28.890Z,101515.88
2023-06-19T20:47:55.537Z,101513.72
2023-06-19T20:50:22.445Z,101480.91
2023-06-19T20:52:49.094Z,101515.22
2023-06-19T20:55:17.348Z,101518.53
2023-06-19T20:57:43.893Z,101521.16
2023-06-19T21:00:11.466Z,101521.09
2023-06-19T21:02:39.086Z,101517.22
2023-06-19T21:05:06.666Z,101514.44
2023-06-19T21:07:33.191Z,101519.53
2023-06-19T21:09:59.652Z,101494.63
2023-06-19T21:12:26.211Z,101517.75
2023-06-19T21:14:55.432Z,101521.16
2023-06-19T21:17:22.555Z,101513.13
2023-06-19T21:19:49.199Z,101503.25
2023-06-19T21:22:15.737Z,101509.94
2023-06-19T21:24:42.259Z,101474.91
2023-06-19T21:27:08.812Z,101512.72
2023-06-19T21:29:36.217Z,101519.25
2023-06-19T21:32:02.698Z,101512.13
2023-06-19T21:34:29.218Z,101516.31
2023-06-19T21:36:55.723Z,101514.81
2023-06-19T21:39:22.173Z,101516.03
2023-06-19T21:41:48.662Z,101523.53
2023-06-19T21:44:15.195Z,101523.25
2023-06-19T21:46:41.713Z,101518.56
2023-06-19T21:49:08.266Z,101517.75
2023-06-19T21:51:35.896Z,101523.66
2023-06-19T21:54:02.911Z,101512.66
2023-06-19T21:56:29.407Z,101516.75
2023-06-19T21:58:55.883Z,101511.97
2023-06-19T22:01:22.505Z,101508.28
2023-06-19T22:03:49.092Z,101519.63
2023-06-19T22:06:16.928Z,101508.97
2023-06-19T22:08:43.538Z,101513.09
2023-06-19T22:11:10.288Z,101514.59
2023-06-19T22:13:37.053Z,101517.16
2023-06-19T22:16:03.690Z,101512.09
2023-06-19T22:18:30.205Z,101518.19
2023-06-19T22:20:56.729Z,101510.81
2023-06-19T22:23:23.258Z,101500.81
2023-06-19T22:25:50.180Z,101509.38
2023-06-19T22:28:16.699Z,101502.31
2023-06-19T22:30:43.536Z,101502.31
2023-06-19T22:33:10.786Z,101508.34
2023-06-19T22:35:37.400Z,101500.22
2023-06-19T22:38:03.933Z,101505.03
2023-06-19T22:40:30.624Z,101503.50
2023-06-19T22:42:57.232Z,101495.75
2023-06-19T22:45:24.041Z,101505.44
2023-06-19T22:47:51.487Z,101511.34
2023-06-19T22:50:18.084Z,101513.84
2023-06-19T22:52:44.527Z,101514.72
2023-06-19T22:55:11.222Z,101509.69
2023-06-19T22:57:37.787Z,101523.31
2023-06-19T23:00:11.250Z,101515.16
2023-06-19T23:02:37.852Z,101511.38
2023-06-19T23:05:05.441Z,101500.13
2023-06-19T23:07:34.524Z,101493.84
2023-06-19T23:10:01.282Z,101506.44
2023-06-19T23:12:27.938Z,101504.09
2023-06-19T23:14:54.420Z,101499.72
2023-06-19T23:17:21.018Z,101502.22
2023-06-19T23:19:47.531Z,101511.81
2023-06-19T23:22:13.978Z,101497.63
2023-06-19T23:24:41.485Z,101471.47
2023-06-19T23:27:09.473Z,101500.13
2023-06-19T23:29:37.143Z,101453.28
2023-06-19T23:32:06.866Z,101454.09
2023-06-19T23:34:34.088Z,101502.63
2023-06-19T23:37:00.664Z,101496.16
2023-06-19T23:39:27.145Z,101493.03
2023-06-19T23:41:53.617Z,101499.53
2023-06-19T23:44:20.234Z,101483.19
2023-06-19T23:46:47.013Z,101489.28
2023-06-19T23:49:13.619Z,101493.25
2023-06-19T23:51:40.603Z,101495.38
2023-06-19T23:54:07.092Z,101487.00
2023-06-19T23:56:34.180Z,101503.50
2023-06-19T23:59:01.031Z,101501.88
